sensor_id;sensor_type;location;lat;lon;timestamp;pressure;altitude;pressure_sealevel;temperature;humidity
6345;BME280;3205;42.666;23.264;2023-08-06T00:00:20;93269.16;;;20.02;100.00
6345;BME280;3205;42.666;23.264;2023-08-06T00:02:48;93298.84;;;19.56;100.00
6345;BME280;3205;42.666;23.264;2023-08-06T00:05:14;93315.22;;;19.61;100.00
6345;BME280;3205;42.666;23.264;2023-08-06T00:07:43;93315.50;;;19.47;100.00
6345;BME280;3205;42.666;23.264;2023-08-06T00:10:10;93315.91;;;19.46;100.00
6345;BME280;3205;42.666;23.264;2023-08-06T00:12:36;93334.63;;;19.49;100.00
6345;BME280;3205;42.666;23.264;2023-08-06T00:15:03;93317.97;;;19.58;100.00
6345;BME280;3205;42.666;23.264;2023-08-06T00:17:29;93308.19;;;19.67;100.00
6345;BME280;3205;42.666;23.264;2023-08-06T00:19:55;93315.69;;;19.56;100.00
6345;BME280;3205;42.666;23.264;2023-08-06T00:22:21;93316.81;;;19.59;100.00
6345;BME280;3205;42.666;23.264;2023-08-06T00:24:47;93318.78;;;19.74;100.00
6345;BME280;3205;42.666;23.264;2023-08-06T00:27:14;93321.47;;;19.94;100.00
6345;BME280;3205;42.666;23.264;2023-08-06T00:29:41;93319.88;;;19.96;100.00
6345;BME280;3205;42.666;23.264;2023-08-06T00:32:07;93312.22;;;19.95;100.00
6345;BME280;3205;42.666;23.264;2023-08-06T00:34:34;93294.38;;;19.69;100.00
6345;BME280;3205;42.666;23.264;2023-08-06T00:37:00;93292.78;;;19.71;100.00
6345;BME280;3205;42.666;23.264;2023-08-06T00:39:26;93293.78;;;19.61;100.00
6345;BME280;3205;42.666;23.264;2023-08-06T00:41:52;93294.88;;;19.44;100.00
6345;BME280;3205;42.666;23.264;2023-08-06T00:44:19;93305.16;;;19.65;100.00
6345;BME280;3205;42.666;23.264;2023-08-06T00:46:45;93291.03;;;19.81;100.00
6345;BME280;3205;42.666;23.264;2023-08-06T00:49:11;93289.44;;;20.03;100.00
6345;BME280;3205;42.666;23.264;2023-08-06T00:51:37;93294.22;;;20.11;100.00
6345;BME280;3205;42.666;23.264;2023-08-06T00:54:04;93290.28;;;20.00;100.00
6345;BME280;3205;42.666;23.264;2023-08-06T00:56:30;93290.69;;;19.98;100.00
6345;BME280;3205;42.666;23.264;2023-08-06T00:58:56;93284.72;;;19.91;100.00
6345;BME280;3205;42.666;23.264;2023-08-06T01:01:23;93278.91;;;19.92;100.00
6345;BME280;3205;42.666;23.264;2023-08-06T01:03:49;93282.31;;;19.96;100.00
6345;BME280;3205;42.666;23.264;2023-08-06T01:06:19;93269.41;;;20.07;100.00
6345;BME280;3205;42.666;23.264;2023-08-06T01:08:55;93245.78;;;20.18;100.00
6345;BME280;3205;42.666;23.264;2023-08-06T01:11:37;93239.06;;;20.26;100.00
6345;BME280;3205;42.666;23.264;2023-08-06T01:14:16;93245.28;;;20.23;100.00
6345;BME280;3205;42.666;23.264;2023-08-06T01:16:44;93249.22;;;20.18;100.00
6345;BME280;3205;42.666;23.264;2023-08-06T01:19:16;93246.38;;;20.25;100.00
6345;BME280;3205;42.666;23.264;2023-08-06T01:21:43;93258.84;;;20.32;100.00
6345;BME280;3205;42.666;23.264;2023-08-06T01:24:09;93258.84;;;20.32;100.00
6345;BME280;3205;42.666;23.264;2023-08-06T01:26:38;93252.91;;;20.40;100.00
6345;BME280;3205;42.666;23.264;2023-08-06T01:29:11;93250.38;;;20.49;100.00
6345;BME280;3205;42.666;23.264;2023-08-06T01:31:43;93244.84;;;20.56;100.00
6345;BME280;3205;42.666;23.264;2023-08-06T01:34:16;93242.56;;;20.55;100.00
6345;BME280;3205;42.666;23.264;2023-08-06T01:36:45;93231.19;;;20.51;100.00
6345;BME280;3205;42.666;23.264;2023-08-06T01:39:11;93231.94;;;20.51;100.00
6345;BME280;3205;42.666;23.264;2023-08-06T01:41:37;93235.53;;;20.45;100.00
6345;BME280;3205;42.666;23.264;2023-08-06T01:44:03;93229.66;;;20.50;100.00
6345;BME280;3205;42.666;23.264;2023-08-06T01:46:29;93239.97;;;20.51;100.00
6345;BME280;3205;42.666;23.264;2023-08-06T01:48:55;93230.50;;;20.47;100.00
6345;BME280;3205;42.666;23.264;2023-08-06T01:51:22;93240.91;;;20.45;100.00
6345;BME280;3205;42.666;23.264;2023-08-06T01:53:49;93239.25;;;20.51;100.00
6345;BME280;3205;42.666;23.264;2023-08-06T01:56:15;93237.91;;;20.43;100.00
6345;BME280;3205;42.666;23.264;2023-08-06T01:58:41;93226.66;;;20.48;100.00
6345;BME280;3205;42.666;23.264;2023-08-06T02:01:07;93221.63;;;20.50;100.00
6345;BME280;3205;42.666;23.264;2023-08-06T02:03:33;93211.19;;;20.52;100.00
6345;BME280;3205;42.666;23.264;2023-08-06T02:05:59;93202.94;;;20.59;100.00
6345;BME280;3205;42.666;23.264;2023-08-06T02:08:27;93214.47;;;20.59;100.00
6345;BME280;3205;42.666;23.264;2023-08-06T02:10:53;93217.50;;;20.61;100.00
6345;BME280;3205;42.666;23.264;2023-08-06T02:13:19;93211.41;;;20.73;100.00
6345;BME280;3205;42.666;23.264;2023-08-06T02:15:46;93221.91;;;20.84;100.00
6345;BME280;3205;42.666;23.264;2023-08-06T02:18:13;93232.66;;;20.84;100.00
6345;BME280;3205;42.666;23.264;2023-08-06T02:20:40;93247.81;;;20.90;100.00
6345;BME280;3205;42.666;23.264;2023-08-06T02:23:09;93253.00;;;20.97;100.00
6345;BME280;3205;42.666;23.264;2023-08-06T02:25:35;93243.91;;;20.79;100.00
6345;BME280;3205;42.666;23.264;2023-08-06T02:28:02;93215.88;;;20.64;100.00
6345;BME280;3205;42.666;23.264;2023-08-06T02:30:28;93204.44;;;20.47;100.00
6345;BME280;3205;42.666;23.264;2023-08-06T02:32:54;93197.28;;;20.25;100.00
6345;BME280;3205;42.666;23.264;2023-08-06T02:35:20;93212.91;;;20.14;100.00
6345;BME280;3205;42.666;23.264;2023-08-06T02:37:46;93236.22;;;20.17;100.00
6345;BME280;3205;42.666;23.264;2023-08-06T02:40:12;93249.56;;;20.20;100.00
6345;BME280;3205;42.666;23.264;2023-08-06T02:42:39;93244.50;;;20.22;100.00
6345;BME280;3205;42.666;23.264;2023-08-06T02:45:07;93237.97;;;20.23;100.00
6345;BME280;3205;42.666;23.264;2023-08-06T02:47:33;93233.94;;;20.15;100.00
6345;BME280;3205;42.666;23.264;2023-08-06T02:49:59;93220.97;;;20.14;100.00
6345;BME280;3205;42.666;23.264;2023-08-06T02:52:25;93205.47;;;20.06;100.00
6345;BME280;3205;42.666;23.264;2023-08-06T02:54:51;93189.34;;;20.06;100.00
6345;BME280;3205;42.666;23.264;2023-08-06T02:57:17;93180.31;;;20.00;100.00
6345;BME280;3205;42.666;23.264;2023-08-06T02:59:43;93187.16;;;20.01;100.00
6345;BME280;3205;42.666;23.264;2023-08-06T03:02:10;93205.63;;;19.99;100.00
6345;BME280;3205;42.666;23.264;2023-08-06T03:04:36;93168.47;;;20.13;100.00
6345;BME280;3205;42.666;23.264;2023-08-06T03:07:02;93156.31;;;20.09;100.00
6345;BME280;3205;42.666;23.264;2023-08-06T03:09:28;93158.00;;;20.03;100.00
6345;BME280;3205;42.666;23.264;2023-08-06T03:11:54;93198.22;;;19.87;100.00
6345;BME280;3205;42.666;23.264;2023-08-06T03:14:20;93214.91;;;19.94;100.00
6345;BME280;3205;42.666;23.264;2023-08-06T03:16:46;93164.44;;;20.05;100.00
6345;BME280;3205;42.666;23.264;2023-08-06T03:19:13;93143.47;;;19.68;100.00
6345;BME280;3205;42.666;23.264;2023-08-06T03:21:41;93169.78;;;19.73;100.00
6345;BME280;3205;42.666;23.264;2023-08-06T03:24:08;93185.47;;;19.91;100.00
6345;BME280;3205;42.666;23.264;2023-08-06T03:26:34;93180.88;;;20.07;100.00
6345;BME280;3205;42.666;23.264;2023-08-06T03:29:00;93150.69;;;20.19;100.00
6345;BME280;3205;42.666;23.264;2023-08-06T03:31:26;93178.78;;;20.14;100.00
6345;BME280;3205;42.666;23.264;2023-08-06T03:33:52;93192.34;;;20.23;100.00
6345;BME280;3205;42.666;23.264;2023-08-06T03:36:19;93202.19;;;20.30;100.00
6345;BME280;3205;42.666;23.264;2023-08-06T03:38:45;93204.13;;;20.14;100.00
6345;BME280;3205;42.666;23.264;2023-08-06T03:41:11;93212.16;;;19.98;100.00
6345;BME280;3205;42.666;23.264;2023-08-06T03:43:37;93206.38;;;20.15;100.00
6345;BME280;3205;42.666;23.264;2023-08-06T03:46:03;93217.19;;;20.12;100.00
6345;BME280;3205;42.666;23.264;2023-08-06T03:48:29;93211.75;;;20.15;100.00
6345;BME280;3205;42.666;23.264;2023-08-06T03:50:56;93229.59;;;20.21;100.00
6345;BME280;3205;42.666;23.264;2023-08-06T03:53:23;93223.88;;;20.35;100.00
6345;BME280;3205;42.666;23.264;2023-08-06T03:55:49;93215.75;;;20.39;100.00
6345;BME280;3205;42.666;23.264;2023-08-06T03:58:15;93225.56;;;20.45;100.00
6345;BME280;3205;42.666;23.264;2023-08-06T04:00:41;93222.28;;;20.54;100.00
6345;BME280;3205;42.666;23.264;2023-08-06T04:03:07;93229.91;;;20.55;100.00
6345;BME280;3205;42.666;23.264;2023-08-06T04:05:33;93228.53;;;20.63;100.00
6345;BME280;3205;42.666;23.264;2023-08-06T04:07:59;93230.66;;;20.72;100.00
6345;BME280;3205;42.666;23.264;2023-08-06T04:10:27;93235.84;;;20.79;100.00
6345;BME280;3205;42.666;23.264;2023-08-06T04:12:53;93238.63;;;20.75;100.00
6345;BME280;3205;42.666;23.264;2023-08-06T04:15:19;93237.38;;;20.64;100.00
6345;BME280;3205;42.666;23.264;2023-08-06T04:17:45;93239.72;;;20.46;100.00
6345;BME280;3205;42.666;23.264;2023-08-06T04:20:11;93244.25;;;20.49;100.00
6345;BME280;3205;42.666;23.264;2023-08-06T04:22:37;93235.09;;;20.62;100.00
6345;BME280;3205;42.666;23.264;2023-08-06T04:25:04;93231.66;;;20.62;100.00
6345;BME280;3205;42.666;23.264;2023-08-06T04:27:31;93222.78;;;20.65;100.00
6345;BME280;3205;42.666;23.264;2023-08-06T04:29:57;93214.03;;;20.61;100.00
6345;BME280;3205;42.666;23.264;2023-08-06T04:32:23;93215.47;;;20.65;100.00
6345;BME280;3205;42.666;23.264;2023-08-06T04:34:51;93222.59;;;20.72;100.00
6345;BME280;3205;42.666;23.264;2023-08-06T04:37:17;93220.41;;;20.83;100.00
6345;BME280;3205;42.666;23.264;2023-08-06T04:39:43;93213.22;;;20.92;100.00
6345;BME280;3205;42.666;23.264;2023-08-06T04:42:09;93206.06;;;21.01;100.00
6345;BME280;3205;42.666;23.264;2023-08-06T04:44:35;93188.19;;;21.23;100.00
6345;BME280;3205;42.666;23.264;2023-08-06T04:47:01;93184.00;;;21.35;100.00
6345;BME280;3205;42.666;23.264;2023-08-06T04:49:27;93164.44;;;21.47;100.00
6345;BME280;3205;42.666;23.264;2023-08-06T04:51:54;93169.38;;;21.48;100.00
6345;BME280;3205;42.666;23.264;2023-08-06T04:54:20;93168.44;;;21.79;100.00
6345;BME280;3205;42.666;23.264;2023-08-06T04:56:46;93163.50;;;21.90;100.00
6345;BME280;3205;42.666;23.264;2023-08-06T04:59:12;93148.22;;;22.00;100.00
6345;BME280;3205;42.666;23.264;2023-08-06T05:01:39;93151.19;;;22.14;100.00
6345;BME280;3205;42.666;23.264;2023-08-06T05:04:08;93149.13;;;22.31;100.00
6345;BME280;3205;42.666;23.264;2023-08-06T05:06:34;93150.75;;;22.62;100.00
6345;BME280;3205;42.666;23.264;2023-08-06T05:09:00;93169.38;;;24.33;100.00
6345;BME280;3205;42.666;23.264;2023-08-06T05:11:26;93174.41;;;26.80;100.00
6345;BME280;3205;42.666;23.264;2023-08-06T05:13:52;93192.50;;;29.49;100.00
6345;BME280;3205;42.666;23.264;2023-08-06T05:16:18;93193.00;;;31.24;100.00
6345;BME280;3205;42.666;23.264;2023-08-06T05:18:45;93206.09;;;32.76;100.00
6345;BME280;3205;42.666;23.264;2023-08-06T05:21:11;93204.88;;;34.31;100.00
6345;BME280;3205;42.666;23.264;2023-08-06T05:23:37;93207.84;;;36.13;86.77
6345;BME280;3205;42.666;23.264;2023-08-06T05:26:03;93216.38;;;37.55;75.50
6345;BME280;3205;42.666;23.264;2023-08-06T05:28:29;93208.31;;;38.97;66.58
6345;BME280;3205;42.666;23.264;2023-08-06T05:30:55;93216.56;;;40.16;58.89
6345;BME280;3205;42.666;23.264;2023-08-06T05:33:21;93213.00;;;40.88;52.94
6345;BME280;3205;42.666;23.264;2023-08-06T05:35:49;93209.44;;;41.47;50.99
6345;BME280;3205;42.666;23.264;2023-08-06T05:38:16;93215.38;;;42.45;46.71
6345;BME280;3205;42.666;23.264;2023-08-06T05:40:42;93211.78;;;42.20;44.10
6345;BME280;3205;42.666;23.264;2023-08-06T05:43:08;93217.91;;;40.37;47.88
6345;BME280;3205;42.666;23.264;2023-08-06T05:45:36;93221.00;;;38.32;57.86
6345;BME280;3205;42.666;23.264;2023-08-06T05:48:03;93215.84;;;36.60;67.22
6345;BME280;3205;42.666;23.264;2023-08-06T05:50:29;93216.47;;;34.77;83.88
6345;BME280;3205;42.666;23.264;2023-08-06T05:52:55;93212.78;;;33.65;100.00
6345;BME280;3205;42.666;23.264;2023-08-06T05:55:22;93213.63;;;32.65;100.00
6345;BME280;3205;42.666;23.264;2023-08-06T05:57:48;93217.78;;;31.73;100.00
6345;BME280;3205;42.666;23.264;2023-08-06T06:00:14;93228.19;;;30.69;100.00
6345;BME280;3205;42.666;23.264;2023-08-06T06:02:40;93226.47;;;30.05;100.00
6345;BME280;3205;42.666;23.264;2023-08-06T06:05:07;93227.16;;;29.74;100.00
6345;BME280;3205;42.666;23.264;2023-08-06T06:07:33;93230.81;;;29.06;100.00
6345;BME280;3205;42.666;23.264;2023-08-06T06:10:00;93227.44;;;28.77;100.00
6345;BME280;3205;42.666;23.264;2023-08-06T06:12:26;93232.31;;;28.53;100.00
6345;BME280;3205;42.666;23.264;2023-08-06T06:14:52;93226.00;;;28.27;100.00
6345;BME280;3205;42.666;23.264;2023-08-06T06:17:18;93239.41;;;28.31;100.00
6345;BME280;3205;42.666;23.264;2023-08-06T06:19:45;93243.47;;;28.55;100.00
6345;BME280;3205;42.666;23.264;2023-08-06T06:22:12;93247.31;;;28.49;100.00
6345;BME280;3205;42.666;23.264;2023-08-06T06:24:38;93255.81;;;28.22;100.00
6345;BME280;3205;42.666;23.264;2023-08-06T06:27:05;93255.88;;;27.70;100.00
6345;BME280;3205;42.666;23.264;2023-08-06T06:29:31;93259.66;;;27.11;100.00
6345;BME280;3205;42.666;23.264;2023-08-06T06:31:57;93263.91;;;26.80;100.00
6345;BME280;3205;42.666;23.264;2023-08-06T06:34:24;93270.31;;;26.68;100.00
6345;BME280;3205;42.666;23.264;2023-08-06T06:36:50;93268.25;;;26.54;100.00
6345;BME280;3205;42.666;23.264;2023-08-06T06:39:17;93278.41;;;26.35;100.00
6345;BME280;3205;42.666;23.264;2023-08-06T06:41:43;93283.59;;;26.16;100.00
6345;BME280;3205;42.666;23.264;2023-08-06T06:44:10;93299.75;;;25.83;100.00
6345;BME280;3205;42.666;23.264;2023-08-06T06:46:36;93294.94;;;25.43;100.00
6345;BME280;3205;42.666;23.264;2023-08-06T06:49:02;93291.81;;;25.26;100.00
6345;BME280;3205;42.666;23.264;2023-08-06T06:51:28;93294.97;;;25.25;100.00
6345;BME280;3205;42.666;23.264;2023-08-06T06:53:57;93291.63;;;25.48;100.00
6345;BME280;3205;42.666;23.264;2023-08-06T06:56:23;93300.13;;;26.68;100.00
6345;BME280;3205;42.666;23.264;2023-08-06T06:58:49;93304.25;;;28.38;100.00
6345;BME280;3205;42.666;23.264;2023-08-06T07:01:16;93311.81;;;28.62;100.00
6345;BME280;3205;42.666;23.264;2023-08-06T07:03:42;93310.78;;;28.46;100.00
6345;BME280;3205;42.666;23.264;2023-08-06T07:06:10;93318.63;;;29.41;100.00
6345;BME280;3205;42.666;23.264;2023-08-06T07:08:37;93326.72;;;32.18;100.00
6345;BME280;3205;42.666;23.264;2023-08-06T07:11:04;93332.09;;;35.08;76.01
6345;BME280;3205;42.666;23.264;2023-08-06T07:13:31;93332.59;;;37.77;57.46
6345;BME280;3205;42.666;23.264;2023-08-06T07:15:57;93338.94;;;40.07;51.11
6345;BME280;3205;42.666;23.264;2023-08-06T07:18:24;93342.63;;;41.99;44.28
6345;BME280;3205;42.666;23.264;2023-08-06T07:20:51;93351.94;;;42.88;38.69
6345;BME280;3205;42.666;23.264;2023-08-06T07:23:19;93345.69;;;43.36;39.82
6345;BME280;3205;42.666;23.264;2023-08-06T07:25:46;93349.81;;;44.18;35.50
6345;BME280;3205;42.666;23.264;2023-08-06T07:28:12;93357.69;;;44.45;35.43
6345;BME280;3205;42.666;23.264;2023-08-06T07:30:39;93362.59;;;44.54;33.76
6345;BME280;3205;42.666;23.264;2023-08-06T07:33:05;93348.88;;;45.09;33.49
6345;BME280;3205;42.666;23.264;2023-08-06T07:35:32;93357.06;;;46.05;32.08
6345;BME280;3205;42.666;23.264;2023-08-06T07:37:58;93360.13;;;44.75;32.83
6345;BME280;3205;42.666;23.264;2023-08-06T07:40:24;93342.09;;;42.87;33.98
6345;BME280;3205;42.666;23.264;2023-08-06T07:42:51;93356.69;;;41.34;37.25
6345;BME280;3205;42.666;23.264;2023-08-06T07:45:17;93350.28;;;40.24;37.69
6345;BME280;3205;42.666;23.264;2023-08-06T07:47:43;93345.22;;;40.50;39.49
6345;BME280;3205;42.666;23.264;2023-08-06T07:50:09;93342.47;;;41.23;38.61
6345;BME280;3205;42.666;23.264;2023-08-06T07:52:36;93337.63;;;40.01;42.27
6345;BME280;3205;42.666;23.264;2023-08-06T07:55:02;93333.72;;;39.96;41.23
6345;BME280;3205;42.666;23.264;2023-08-06T07:57:30;93335.41;;;41.00;42.68
6345;BME280;3205;42.666;23.264;2023-08-06T07:59:56;93337.66;;;42.52;37.33
6345;BME280;3205;42.666;23.264;2023-08-06T08:02:22;93333.91;;;43.52;36.04
6345;BME280;3205;42.666;23.264;2023-08-06T08:04:49;93336.59;;;42.79;34.02
6345;BME280;3205;42.666;23.264;2023-08-06T08:07:15;93328.94;;;41.94;34.57
6345;BME280;3205;42.666;23.264;2023-08-06T08:09:42;93328.03;;;41.54;35.79
6345;BME280;3205;42.666;23.264;2023-08-06T08:12:08;93329.06;;;39.43;39.46
6345;BME280;3205;42.666;23.264;2023-08-06T08:14:34;93336.63;;;37.76;41.34
6345;BME280;3205;42.666;23.264;2023-08-06T08:17:01;93331.34;;;35.32;48.30
6345;BME280;3205;42.666;23.264;2023-08-06T08:19:28;93329.25;;;34.09;52.20
6345;BME280;3205;42.666;23.264;2023-08-06T08:21:54;93328.78;;;33.22;64.09
6345;BME280;3205;42.666;23.264;2023-08-06T08:24:21;93337.19;;;33.56;61.46
6345;BME280;3205;42.666;23.264;2023-08-06T08:26:50;93333.13;;;34.71;56.88
6345;BME280;3205;42.666;23.264;2023-08-06T08:29:16;93327.13;;;36.70;52.52
6345;BME280;3205;42.666;23.264;2023-08-06T08:31:42;93328.69;;;39.19;42.33
6345;BME280;3205;42.666;23.264;2023-08-06T08:34:09;93331.56;;;40.45;37.60
6345;BME280;3205;42.666;23.264;2023-08-06T08:36:35;93322.31;;;41.37;34.96
6345;BME280;3205;42.666;23.264;2023-08-06T08:39:01;93331.78;;;42.26;34.04
6345;BME280;3205;42.666;23.264;2023-08-06T08:41:28;93333.00;;;41.93;33.52
6345;BME280;3205;42.666;23.264;2023-08-06T08:43:56;93327.28;;;42.84;32.38
6345;BME280;3205;42.666;23.264;2023-08-06T08:46:25;93327.97;;;43.24;33.09
6345;BME280;3205;42.666;23.264;2023-08-06T08:48:52;93318.66;;;43.95;32.83
6345;BME280;3205;42.666;23.264;2023-08-06T08:51:19;93315.88;;;44.45;31.92
6345;BME280;3205;42.666;23.264;2023-08-06T08:53:47;93315.16;;;43.70;30.28
6345;BME280;3205;42.666;23.264;2023-08-06T08:56:14;93310.13;;;44.26;31.06
6345;BME280;3205;42.666;23.264;2023-08-06T08:58:40;93313.91;;;44.38;30.53
6345;BME280;3205;42.666;23.264;2023-08-06T09:01:07;93305.53;;;44.38;29.86
6345;BME280;3205;42.666;23.264;2023-08-06T09:03:33;93316.13;;;44.23;32.56
6345;BME280;3205;42.666;23.264;2023-08-06T09:06:02;93315.94;;;43.87;31.78
6345;BME280;3205;42.666;23.264;2023-08-06T09:08:33;93301.91;;;43.78;31.11
6345;BME280;3205;42.666;23.264;2023-08-06T09:11:01;93298.97;;;43.93;30.32
6345;BME280;3205;42.666;23.264;2023-08-06T09:13:28;93307.81;;;43.99;30.98
6345;BME280;3205;42.666;23.264;2023-08-06T09:15:54;93301.44;;;43.89;29.67
6345;BME280;3205;42.666;23.264;2023-08-06T09:18:26;93296.44;;;44.04;32.39
6345;BME280;3205;42.666;23.264;2023-08-06T09:20:53;93297.13;;;44.55;33.29
6345;BME280;3205;42.666;23.264;2023-08-06T09:23:19;93302.31;;;45.11;30.37
6345;BME280;3205;42.666;23.264;2023-08-06T09:25:47;93301.53;;;44.75;32.64
6345;BME280;3205;42.666;23.264;2023-08-06T09:28:13;93296.28;;;43.85;30.98
6345;BME280;3205;42.666;23.264;2023-08-06T09:30:39;93292.25;;;44.13;30.49
6345;BME280;3205;42.666;23.264;2023-08-06T09:33:08;93288.13;;;44.47;29.84
6345;BME280;3205;42.666;23.264;2023-08-06T09:35:36;93292.44;;;45.01;30.03
6345;BME280;3205;42.666;23.264;2023-08-06T09:38:06;93290.00;;;45.14;28.39
6345;BME280;3205;42.666;23.264;2023-08-06T09:40:36;93283.25;;;45.17;29.19
6345;BME280;3205;42.666;23.264;2023-08-06T09:43:02;93279.63;;;45.88;28.87
6345;BME280;3205;42.666;23.264;2023-08-06T09:45:30;93283.38;;;45.10;29.45
6345;BME280;3205;42.666;23.264;2023-08-06T09:47:58;93280.59;;;43.73;30.13
6345;BME280;3205;42.666;23.264;2023-08-06T09:50:30;93281.63;;;41.17;34.77
6345;BME280;3205;42.666;23.264;2023-08-06T09:52:58;93278.66;;;38.89;35.56
6345;BME280;3205;42.666;23.264;2023-08-06T09:55:24;93280.94;;;37.08;38.79
6345;BME280;3205;42.666;23.264;2023-08-06T09:57:52;93274.72;;;36.08;45.57
6345;BME280;3205;42.666;23.264;2023-08-06T10:00:19;93285.13;;;35.30;45.12
6345;BME280;3205;42.666;23.264;2023-08-06T10:02:45;93292.31;;;34.51;48.90
6345;BME280;3205;42.666;23.264;2023-08-06T10:05:12;93290.25;;;33.76;51.15
6345;BME280;3205;42.666;23.264;2023-08-06T10:07:38;93295.44;;;32.90;51.63
6345;BME280;3205;42.666;23.264;2023-08-06T10:10:07;93292.44;;;32.28;61.47
6345;BME280;3205;42.666;23.264;2023-08-06T10:12:35;93295.41;;;32.19;69.77
6345;BME280;3205;42.666;23.264;2023-08-06T10:15:07;93291.47;;;32.86;57.87
6345;BME280;3205;42.666;23.264;2023-08-06T10:17:35;93295.63;;;33.25;54.07
6345;BME280;3205;42.666;23.264;2023-08-06T10:20:03;93300.19;;;32.84;61.09
6345;BME280;3205;42.666;23.264;2023-08-06T10:22:32;93290.72;;;32.36;57.69
6345;BME280;3205;42.666;23.264;2023-08-06T10:25:00;93289.28;;;31.61;62.99
6345;BME280;3205;42.666;23.264;2023-08-06T10:27:33;93293.63;;;31.36;65.04
6345;BME280;3205;42.666;23.264;2023-08-06T10:30:21;93293.91;;;31.49;67.01
6345;BME280;3205;42.666;23.264;2023-08-06T10:32:49;93294.81;;;31.88;72.37
6345;BME280;3205;42.666;23.264;2023-08-06T10:35:29;93288.81;;;31.67;70.36
6345;BME280;3205;42.666;23.264;2023-08-06T10:37:58;93299.28;;;31.22;67.81
6345;BME280;3205;42.666;23.264;2023-08-06T10:40:24;93302.38;;;31.04;73.40
6345;BME280;3205;42.666;23.264;2023-08-06T10:42:52;93303.59;;;31.03;86.61
6345;BME280;3205;42.666;23.264;2023-08-06T10:45:19;93314.63;;;30.83;75.22
6345;BME280;3205;42.666;23.264;2023-08-06T10:47:45;93310.69;;;30.53;79.55
6345;BME280;3205;42.666;23.264;2023-08-06T10:50:13;93321.13;;;30.04;82.84
6345;BME280;3205;42.666;23.264;2023-08-06T10:52:39;93317.28;;;29.91;84.94
6345;BME280;3205;42.666;23.264;2023-08-06T10:55:06;93318.06;;;29.97;81.17
6345;BME280;3205;42.666;23.264;2023-08-06T10:57:32;93322.16;;;30.07;80.64
6345;BME280;3205;42.666;23.264;2023-08-06T10:59:59;93324.53;;;30.24;83.59
6345;BME280;3205;42.666;23.264;2023-08-06T11:02:25;93326.34;;;30.33;88.21
6345;BME280;3205;42.666;23.264;2023-08-06T11:04:51;93333.53;;;30.56;90.97
6345;BME280;3205;42.666;23.264;2023-08-06T11:07:18;93333.53;;;30.56;84.30
6345;BME280;3205;42.666;23.264;2023-08-06T11:09:44;93336.59;;;30.69;88.54
6345;BME280;3205;42.666;23.264;2023-08-06T11:12:18;93339.50;;;30.60;88.01
6345;BME280;3205;42.666;23.264;2023-08-06T11:14:49;93349.13;;;30.05;92.84
6345;BME280;3205;42.666;23.264;2023-08-06T11:17:17;93356.13;;;28.97;100.00
6345;BME280;3205;42.666;23.264;2023-08-06T11:19:43;93360.81;;;28.10;100.00
6345;BME280;3205;42.666;23.264;2023-08-06T11:22:09;93357.69;;;27.27;100.00
6345;BME280;3205;42.666;23.264;2023-08-06T11:24:37;93346.25;;;26.91;100.00
6345;BME280;3205;42.666;23.264;2023-08-06T11:27:11;93346.75;;;26.81;100.00
6345;BME280;3205;42.666;23.264;2023-08-06T11:29:37;93346.31;;;26.73;100.00
6345;BME280;3205;42.666;23.264;2023-08-06T11:32:04;93344.25;;;26.68;100.00
6345;BME280;3205;42.666;23.264;2023-08-06T11:34:31;93345.06;;;26.92;100.00
6345;BME280;3205;42.666;23.264;2023-08-06T11:36:57;93337.66;;;27.25;100.00
6345;BME280;3205;42.666;23.264;2023-08-06T11:39:23;93333.25;;;27.51;100.00
6345;BME280;3205;42.666;23.264;2023-08-06T11:41:50;93332.09;;;27.80;100.00
6345;BME280;3205;42.666;23.264;2023-08-06T11:44:19;93322.47;;;27.94;100.00
6345;BME280;3205;42.666;23.264;2023-08-06T11:46:53;93323.53;;;28.11;100.00
6345;BME280;3205;42.666;23.264;2023-08-06T11:52:08;93317.41;;;28.01;100.00
6345;BME280;3205;42.666;23.264;2023-08-06T11:54:34;93319.75;;;27.80;100.00
6345;BME280;3205;42.666;23.264;2023-08-06T11:57:02;93306.44;;;27.67;100.00
6345;BME280;3205;42.666;23.264;2023-08-06T11:59:29;93307.34;;;27.64;100.00
6345;BME280;3205;42.666;23.264;2023-08-06T12:01:55;93308.28;;;27.61;100.00
6345;BME280;3205;42.666;23.264;2023-08-06T12:04:21;93307.34;;;27.64;100.00
6345;BME280;3205;42.666;23.264;2023-08-06T12:06:47;93305.06;;;27.48;100.00
6345;BME280;3205;42.666;23.264;2023-08-06T12:09:14;93307.09;;;27.62;100.00
6345;BME280;3205;42.666;23.264;2023-08-06T12:11:40;93293.53;;;27.77;100.00
6345;BME280;3205;42.666;23.264;2023-08-06T12:14:06;93303.84;;;27.73;100.00
6345;BME280;3205;42.666;23.264;2023-08-06T12:16:32;93306.44;;;27.67;100.00
6345;BME280;3205;42.666;23.264;2023-08-06T12:19:01;93297.13;;;27.59;100.00
6345;BME280;3205;42.666;23.264;2023-08-06T12:21:29;93290.97;;;27.73;100.00
6345;BME280;3205;42.666;23.264;2023-08-06T12:23:55;93291.56;;;28.06;100.00
6345;BME280;3205;42.666;23.264;2023-08-06T12:26:22;93302.53;;;28.11;100.00
6345;BME280;3205;42.666;23.264;2023-08-06T12:28:48;93302.34;;;28.15;100.00
6345;BME280;3205;42.666;23.264;2023-08-06T12:31:15;93301.72;;;28.20;100.00
6345;BME280;3205;42.666;23.264;2023-08-06T12:33:41;93299.00;;;28.20;100.00
6345;BME280;3205;42.666;23.264;2023-08-06T12:36:07;93301.13;;;28.16;100.00
6345;BME280;3205;42.666;23.264;2023-08-06T12:38:34;93306.69;;;28.21;100.00
6345;BME280;3205;42.666;23.264;2023-08-06T12:41:00;93310.03;;;28.16;100.00
6345;BME280;3205;42.666;23.264;2023-08-06T12:43:27;93299.47;;;28.33;100.00
6345;BME280;3205;42.666;23.264;2023-08-06T12:45:53;93300.34;;;28.58;100.00
6345;BME280;3205;42.666;23.264;2023-08-06T12:48:21;93295.09;;;28.69;100.00
6345;BME280;3205;42.666;23.264;2023-08-06T12:50:47;93293.78;;;28.65;100.00
6345;BME280;3205;42.666;23.264;2023-08-06T12:53:14;93290.88;;;28.68;100.00
6345;BME280;3205;42.666;23.264;2023-08-06T12:55:41;93290.69;;;28.72;100.00
6345;BME280;3205;42.666;23.264;2023-08-06T12:58:07;93297.63;;;28.73;100.00
6345;BME280;3205;42.666;23.264;2023-08-06T13:00:34;93291.50;;;28.92;100.00
6345;BME280;3205;42.666;23.264;2023-08-06T13:03:00;93291.66;;;29.03;100.00
6345;BME280;3205;42.666;23.264;2023-08-06T13:05:27;93282.19;;;29.19;100.00